Terminal Aerodrome Forecast
Issued by NWS

Home | Current Version | Previous Version | Text Only | Print | Product List | Glossary On
Versions: 1 2 3 4 5 6 7 8 9 10 11 12 13 14 15
697
FTPA31 PHFO 210539
TAFHOG
TAF
PHOG 210539Z 2106/2206 05010KT P6SM VCSH SCT035 BKN050
     FM211700 05018G28KT P6SM -SHRA SCT025 BKN035
     FM220000 05025G33KT P6SM -SHRA SCT025 BKN035
      AMD LTD TO VIS AND WIND 2109/2116=

USA.gov is the U.S. government's official web portal to all federal, state and local government web resources and services.